createdAt,value
2016-12-27T00:00:11.474Z,1029.76
2016-12-27T00:00:53.277Z,1029.76
2016-12-27T00:03:08.494Z,1029.78
2016-12-27T00:05:03.183Z,1029.72
2016-12-27T00:05:44.916Z,1029.72
2016-12-27T00:06:26.642Z,1029.74
2016-12-27T00:08:26.698Z,1029.65
2016-12-27T00:09:08.292Z,1029.72
2016-12-27T00:09:49.842Z,1029.74
2016-12-27T00:10:31.492Z,1029.73
2016-12-27T00:11:13.060Z,1029.73
2016-12-27T00:13:44.188Z,1029.72
2016-12-27T00:14:25.939Z,1029.72
2016-12-27T00:15:07.673Z,1029.73
2016-12-27T00:15:49.401Z,1029.75
2016-12-27T00:16:31.151Z,1029.76
2016-12-27T00:17:12.711Z,1029.76
2016-12-27T00:19:43.832Z,1029.78
2016-12-27T00:20:25.586Z,1029.75
2016-12-27T00:21:07.324Z,1029.83
2016-12-27T00:21:48.729Z,1029.8
2016-12-27T00:22:30.477Z,1029.82
2016-12-27T00:23:12.033Z,1029.79
2016-12-27T00:23:53.794Z,1029.77
2016-12-27T00:26:09.327Z,1029.78
2016-12-27T00:26:50.941Z,1029.79
2016-12-27T00:27:32.592Z,1029.73
2016-12-27T00:28:14.319Z,1029.76
2016-12-27T00:28:56.069Z,1029.76
2016-12-27T00:29:37.839Z,1029.79
2016-12-27T00:30:19.531Z,1029.79
2016-12-27T00:31:01.209Z,1029.79
2016-12-27T00:31:42.725Z,1029.77
2016-12-27T00:33:42.781Z,1029.82
2016-12-27T00:34:24.477Z,1029.82
2016-12-27T00:35:06.232Z,1029.86
2016-12-27T00:37:06.321Z,1029.86
2016-12-27T00:37:47.935Z,1029.83
2016-12-27T00:39:42.788Z,1029.89
2016-12-27T00:40:24.558Z,1029.9
2016-12-27T00:41:06.235Z,1029.92
2016-12-27T00:41:47.858Z,1029.92
2016-12-27T00:44:08.557Z,1029.89
2016-12-27T00:44:50.106Z,1029.92
2016-12-27T00:45:31.718Z,1029.89
2016-12-27T00:47:31.687Z,1029.88
2016-12-27T00:48:13.371Z,1029.89
2016-12-27T00:48:55.110Z,1029.82
2016-12-27T00:49:36.855Z,1029.83
2016-12-27T00:50:18.543Z,1029.8
2016-12-27T00:52:49.655Z,1029.83
2016-12-27T00:53:31.436Z,1029.84
2016-12-27T00:54:13.194Z,1029.84
2016-12-27T00:54:54.967Z,1029.87
2016-12-27T00:55:36.732Z,1029.85
2016-12-27T00:56:18.436Z,1029.87
2016-12-27T00:57:00.187Z,1029.87
2016-12-27T00:57:41.926Z,1029.86
2016-12-27T00:58:23.640Z,1029.88
2016-12-27T00:59:05.401Z,1029.89
2016-12-27T00:59:47.146Z,1029.87
2016-12-27T01:00:28.820Z,1029.93
2016-12-27T01:01:10.575Z,1029.89
2016-12-27T01:01:52.170Z,1029.86
2016-12-27T01:04:13.055Z,1029.8
2016-12-27T01:04:54.599Z,1029.87
2016-12-27T01:07:10.029Z,1029.93
2016-12-27T01:07:51.731Z,1029.93
2016-12-27T01:08:33.383Z,1029.91
2016-12-27T01:09:15.046Z,1029.92
2016-12-27T01:09:56.805Z,1029.97
2016-12-27T01:10:38.415Z,1029.93
2016-12-27T01:11:20.081Z,1029.96
2016-12-27T01:13:20.131Z,1030
2016-12-27T01:14:01.933Z,1029.99
2016-12-27T01:14:43.651Z,1030.02
2016-12-27T01:15:25.394Z,1030.05
2016-12-27T01:16:07.169Z,1030.03
2016-12-27T01:18:01.869Z,1030.09
2016-12-27T01:18:43.531Z,1030.06
2016-12-27T01:20:43.577Z,1030.14
2016-12-27T01:21:25.356Z,1030.13
2016-12-27T01:22:07.117Z,1030.14
2016-12-27T01:22:48.875Z,1030.16
2016-12-27T01:25:03.998Z,1030.2
2016-12-27T01:27:19.418Z,1030.26
2016-12-27T01:28:01.164Z,1030.25
2016-12-27T01:28:42.902Z,1030.28
2016-12-27T01:29:24.610Z,1030.32
2016-12-27T01:30:06.356Z,1030.32
2016-12-27T01:30:48.120Z,1030.38
2016-12-27T01:31:29.884Z,1030.37
2016-12-27T01:32:11.641Z,1030.41
2016-12-27T01:32:53.379Z,1030.4
2016-12-27T01:33:35.172Z,1030.41
2016-12-27T01:34:16.882Z,1030.34
2016-12-27T01:34:58.554Z,1030.38
2016-12-27T01:35:40.250Z,1030.38
2016-12-27T01:36:21.829Z,1030.36
2016-12-27T01:37:03.194Z,1030.45
2016-12-27T01:37:44.932Z,1030.39
2016-12-27T01:38:26.648Z,1030.41
2016-12-27T01:40:47.260Z,1030.44
2016-12-27T01:41:28.734Z,1030.49
2016-12-27T01:42:10.323Z,1030.46
2016-12-27T01:42:51.837Z,1030.45
2016-12-27T01:45:07.134Z,1030.49
2016-12-27T01:45:48.688Z,1030.49
2016-12-27T01:46:30.449Z,1030.53
2016-12-27T01:48:51.211Z,1030.55
2016-12-27T01:49:32.826Z,1030.55
2016-12-27T01:50:14.484Z,1030.58
2016-12-27T01:50:56.195Z,1030.63
2016-12-27T01:51:37.858Z,1030.62
2016-12-27T01:52:19.418Z,1030.6
2016-12-27T01:53:00.966Z,1030.58
2016-12-27T01:53:42.636Z,1030.59
2016-12-27T01:57:32.054Z,1030.64
2016-12-27T01:59:26.541Z,1030.68
2016-12-27T02:00:07.134Z,1030.68
2016-12-27T02:00:47.663Z,1030.67
2016-12-27T02:01:28.194Z,1030.7
2016-12-27T02:02:08.724Z,1030.76
2016-12-27T02:02:49.252Z,1030.72
2016-12-27T02:03:29.794Z,1030.73
2016-12-27T02:04:10.320Z,1030.7
2016-12-27T02:04:50.863Z,1030.75
2016-12-27T02:05:31.374Z,1030.69
2016-12-27T02:06:11.904Z,1030.67
2016-12-27T02:06:52.424Z,1030.68
2016-12-27T02:07:32.951Z,1030.61
2016-12-27T02:08:13.485Z,1030.61
2016-12-27T02:08:54.015Z,1030.58
2016-12-27T02:09:34.529Z,1030.57
2016-12-27T02:10:15.071Z,1030.58
2016-12-27T02:10:55.594Z,1030.56
2016-12-27T02:11:36.121Z,1030.64
2016-12-27T02:12:16.660Z,1030.63
2016-12-27T02:12:57.192Z,1030.66
2016-12-27T02:13:37.711Z,1030.62
2016-12-27T02:14:18.239Z,1030.64
2016-12-27T02:14:58.771Z,1030.65
2016-12-27T02:15:39.304Z,1030.64
2016-12-27T02:16:19.828Z,1030.61
2016-12-27T02:17:00.363Z,1030.62
2016-12-27T02:17:40.905Z,1030.63
2016-12-27T02:18:21.433Z,1030.66
2016-12-27T02:19:01.968Z,1030.58
2016-12-27T02:19:42.506Z,1030.63
2016-12-27T02:20:23.038Z,1030.59
2016-12-27T02:21:03.572Z,1030.64
2016-12-27T02:21:44.097Z,1030.59
2016-12-27T02:22:24.638Z,1030.58
2016-12-27T02:23:05.173Z,1030.6
2016-12-27T02:23:45.706Z,1030.6
2016-12-27T02:24:26.232Z,1030.54
2016-12-27T02:25:06.753Z,1030.6
2016-12-27T02:25:47.288Z,1030.61
2016-12-27T02:26:27.822Z,1030.67
2016-12-27T02:27:08.365Z,1030.59
2016-12-27T02:27:48.890Z,1030.63
2016-12-27T02:28:29.422Z,1030.67
2016-12-27T02:29:09.955Z,1030.71
2016-12-27T02:29:50.494Z,1030.75
2016-12-27T02:30:31.025Z,1030.73
2016-12-27T02:31:11.564Z,1030.74
2016-12-27T02:31:52.095Z,1030.75
2016-12-27T02:32:32.626Z,1030.77
2016-12-27T02:33:13.156Z,1030.79
2016-12-27T02:33:53.693Z,1030.77
2016-12-27T02:34:34.228Z,1030.75
2016-12-27T02:35:14.763Z,1030.75
2016-12-27T02:35:55.294Z,1030.73
2016-12-27T02:36:35.809Z,1030.74
2016-12-27T02:37:16.359Z,1030.72
2016-12-27T02:37:56.896Z,1030.73
2016-12-27T02:38:37.426Z,1030.7
2016-12-27T02:39:17.969Z,1030.71
2016-12-27T02:39:58.505Z,1030.71
2016-12-27T02:40:39.035Z,1030.67
2016-12-27T02:41:19.563Z,1030.64
2016-12-27T02:42:00.100Z,1030.71
2016-12-27T02:42:40.651Z,1030.69
2016-12-27T02:43:21.165Z,1030.75
2016-12-27T02:44:01.694Z,1030.75
2016-12-27T02:44:42.234Z,1030.82
2016-12-27T02:45:22.764Z,1030.83
2016-12-27T02:46:03.297Z,1030.79
2016-12-27T02:46:43.830Z,1030.69
2016-12-27T02:47:24.348Z,1030.73
2016-12-27T02:48:04.880Z,1030.64
2016-12-27T02:48:45.418Z,1030.69
2016-12-27T02:49:25.949Z,1030.68
2016-12-27T02:50:06.481Z,1030.7
2016-12-27T02:50:47.006Z,1030.74
2016-12-27T02:51:27.549Z,1030.7
2016-12-27T02:52:08.085Z,1030.68
2016-12-27T02:52:48.605Z,1030.72
2016-12-27T02:53:29.142Z,1030.7
2016-12-27T02:54:09.683Z,1030.68
2016-12-27T02:54:50.205Z,1030.65
2016-12-27T02:55:30.742Z,1030.72
2016-12-27T02:56:11.271Z,1030.73
2016-12-27T02:56:51.805Z,1030.73
2016-12-27T02:57:32.337Z,1030.71
2016-12-27T02:58:12.873Z,1030.65
2016-12-27T02:58:53.399Z,1030.68
2016-12-27T02:59:33.919Z,1030.6
2016-12-27T03:00:14.450Z,1030.66
2016-12-27T03:00:54.982Z,1030.69
2016-12-27T03:01:35.504Z,1030.64
2016-12-27T03:02:16.035Z,1030.62
2016-12-27T03:02:56.574Z,1030.69
2016-12-27T03:03:37.104Z,1030.75
2016-12-27T03:04:17.640Z,1030.76
2016-12-27T03:04:58.182Z,1030.75
2016-12-27T03:05:38.720Z,1030.81
2016-12-27T03:06:19.251Z,1030.79
2016-12-27T03:06:59.785Z,1030.77
2016-12-27T03:07:40.313Z,1030.8
2016-12-27T03:08:20.842Z,1030.78
2016-12-27T03:09:01.379Z,1030.75
2016-12-27T03:09:41.929Z,1030.78
2016-12-27T03:10:22.472Z,1030.73
2016-12-27T03:11:03.010Z,1030.69
2016-12-27T03:11:43.539Z,1030.67
2016-12-27T03:12:24.073Z,1030.7
2016-12-27T03:13:04.611Z,1030.7
2016-12-27T03:13:45.140Z,1030.76
2016-12-27T03:14:25.664Z,1030.72
2016-12-27T03:15:06.205Z,1030.75
2016-12-27T03:15:46.728Z,1030.76
2016-12-27T03:16:27.259Z,1030.75
2016-12-27T03:17:07.796Z,1030.77
2016-12-27T03:17:48.339Z,1030.8
2016-12-27T03:18:28.868Z,1030.79
2016-12-27T03:19:09.406Z,1030.8
2016-12-27T03:19:49.944Z,1030.73
2016-12-27T03:20:30.477Z,1030.71
2016-12-27T03:21:11.023Z,1030.72
2016-12-27T03:21:51.560Z,1030.71
2016-12-27T03:22:32.095Z,1030.77
2016-12-27T03:23:12.632Z,1030.79
2016-12-27T03:23:53.177Z,1030.79
2016-12-27T03:24:33.712Z,1030.79
2016-12-27T03:25:14.248Z,1030.78
2016-12-27T03:25:54.777Z,1030.83
2016-12-27T03:26:35.305Z,1030.84
2016-12-27T03:27:15.839Z,1030.85
2016-12-27T03:27:56.370Z,1030.83
2016-12-27T03:28:36.900Z,1030.76
2016-12-27T03:29:17.439Z,1030.78
2016-12-27T03:29:57.955Z,1030.7
2016-12-27T03:30:38.493Z,1030.63
2016-12-27T03:31:19.033Z,1030.6
2016-12-27T03:31:59.555Z,1030.64
2016-12-27T03:32:40.090Z,1030.71
2016-12-27T03:33:20.624Z,1030.7
2016-12-27T03:34:01.160Z,1030.7
2016-12-27T03:34:41.696Z,1030.7
2016-12-27T03:35:22.223Z,1030.7
2016-12-27T03:36:02.759Z,1030.76
2016-12-27T03:36:43.285Z,1030.77
2016-12-27T03:37:23.819Z,1030.78
2016-12-27T03:38:04.351Z,1030.79
2016-12-27T03:38:44.875Z,1030.79
2016-12-27T03:39:25.404Z,1030.76
2016-12-27T03:40:05.935Z,1030.77
2016-12-27T03:40:46.462Z,1030.8
2016-12-27T03:41:26.998Z,1030.79
2016-12-27T03:42:07.525Z,1030.81
2016-12-27T03:42:48.060Z,1030.8
2016-12-27T03:43:28.593Z,1030.79
2016-12-27T03:44:09.130Z,1030.74
2016-12-27T03:44:49.663Z,1030.8
2016-12-27T03:45:30.184Z,1030.82
2016-12-27T03:46:10.708Z,1030.81
2016-12-27T03:46:51.245Z,1030.85
2016-12-27T03:47:31.781Z,1030.85
2016-12-27T03:48:12.325Z,1030.88
2016-12-27T03:48:52.865Z,1030.88
2016-12-27T03:49:33.403Z,1030.87
2016-12-27T03:50:13.935Z,1030.88
2016-12-27T03:50:54.464Z,1030.87
2016-12-27T03:51:34.988Z,1030.92
2016-12-27T03:52:15.518Z,1030.92
2016-12-27T03:52:56.054Z,1030.92
2016-12-27T03:53:36.583Z,1030.88
2016-12-27T03:54:17.115Z,1030.87
2016-12-27T03:54:57.647Z,1030.84
2016-12-27T03:55:38.182Z,1030.84
2016-12-27T03:56:18.720Z,1030.87
2016-12-27T03:56:59.243Z,1030.84
2016-12-27T03:57:41.440Z,1030.89
2016-12-27T03:58:21.962Z,1030.93
2016-12-27T03:59:02.510Z,1030.86
2016-12-27T03:59:43.039Z,1030.91
2016-12-27T04:00:23.572Z,1030.89
2016-12-27T04:01:04.104Z,1030.89
2016-12-27T04:01:44.625Z,1030.87
2016-12-27T04:02:25.155Z,1030.9
2016-12-27T04:03:05.684Z,1030.94
2016-12-27T04:03:46.220Z,1030.95
2016-12-27T04:04:26.757Z,1030.98
2016-12-27T04:05:07.279Z,1030.99
2016-12-27T04:05:47.808Z,1031.01
2016-12-27T04:06:28.336Z,1031.02
2016-12-27T04:07:08.872Z,1031.03
2016-12-27T04:07:49.403Z,1030.99
2016-12-27T04:08:29.931Z,1031.01
2016-12-27T04:09:10.460Z,1031.02
2016-12-27T04:09:50.991Z,1031.07
2016-12-27T04:10:31.522Z,1031.1
2016-12-27T04:11:12.059Z,1031.12
2016-12-27T04:11:52.581Z,1031.12
2016-12-27T04:12:33.116Z,1031.16
2016-12-27T04:13:13.639Z,1031.16
2016-12-27T04:13:54.194Z,1031.12
2016-12-27T04:14:34.727Z,1031.18
2016-12-27T04:15:15.240Z,1031.24
2016-12-27T04:15:55.766Z,1031.21
2016-12-27T04:16:36.348Z,1031.24
2016-12-27T04:17:16.873Z,1031.24
2016-12-27T04:17:57.397Z,1031.25
2016-12-27T04:18:37.933Z,1031.37
2016-12-27T04:19:18.475Z,1031.34
2016-12-27T04:19:58.989Z,1031.4
2016-12-27T04:20:39.539Z,1031.43
2016-12-27T04:21:20.079Z,1031.48
2016-12-27T04:22:00.612Z,1031.41
2016-12-27T04:22:41.132Z,1031.44
2016-12-27T04:23:21.668Z,1031.45
2016-12-27T04:24:02.191Z,1031.5
2016-12-27T04:24:42.715Z,1031.48
2016-12-27T04:25:23.251Z,1031.51
2016-12-27T04:26:03.789Z,1031.48
2016-12-27T04:26:44.332Z,1031.52
2016-12-27T04:27:24.857Z,1031.51
2016-12-27T04:28:05.397Z,1031.51
2016-12-27T04:28:45.932Z,1031.57
2016-12-27T04:29:26.460Z,1031.58
2016-12-27T04:30:06.995Z,1031.61
2016-12-27T04:30:47.535Z,1031.62
2016-12-27T04:31:28.080Z,1031.63
2016-12-27T04:32:08.603Z,1031.68
2016-12-27T04:32:49.120Z,1031.62
2016-12-27T04:33:29.649Z,1031.64
2016-12-27T04:34:10.199Z,1031.75
2016-12-27T04:34:50.739Z,1031.67
2016-12-27T04:35:31.279Z,1031.7
2016-12-27T04:36:11.801Z,1031.7
2016-12-27T04:36:52.324Z,1031.67
2016-12-27T04:37:32.861Z,1031.73
2016-12-27T04:38:13.395Z,1031.74
2016-12-27T04:38:53.941Z,1031.79
2016-12-27T04:39:34.459Z,1031.76
2016-12-27T04:40:15.003Z,1031.79
2016-12-27T04:40:55.514Z,1031.76
2016-12-27T04:41:36.049Z,1031.82
2016-12-27T04:42:16.581Z,1031.83
2016-12-27T04:42:57.107Z,1031.82
2016-12-27T04:43:37.634Z,1031.75
2016-12-27T04:44:18.167Z,1031.81
2016-12-27T04:44:58.702Z,1031.85
2016-12-27T04:45:39.235Z,1031.78
2016-12-27T04:46:19.760Z,1031.82
2016-12-27T04:47:00.283Z,1031.83
2016-12-27T04:47:40.822Z,1031.85
2016-12-27T04:48:21.351Z,1031.88
2016-12-27T04:49:01.889Z,1031.89
2016-12-27T04:49:42.414Z,1031.84
2016-12-27T04:50:22.943Z,1031.84
2016-12-27T04:51:03.475Z,1031.88
2016-12-27T04:51:44.000Z,1031.89
2016-12-27T04:52:24.539Z,1031.86
2016-12-27T04:53:05.065Z,1031.9
2016-12-27T04:53:45.594Z,1031.89
2016-12-27T04:54:26.128Z,1031.91
2016-12-27T04:55:06.662Z,1031.92
2016-12-27T04:55:47.201Z,1031.91
2016-12-27T04:56:27.731Z,1031.91
2016-12-27T04:57:08.266Z,1031.92
2016-12-27T04:57:48.797Z,1031.84
2016-12-27T04:58:29.326Z,1031.84
2016-12-27T04:59:09.864Z,1031.83
2016-12-27T04:59:50.404Z,1031.82
2016-12-27T05:00:30.945Z,1031.83
2016-12-27T05:01:11.470Z,1031.79
2016-12-27T05:01:51.999Z,1031.78
2016-12-27T05:02:32.534Z,1031.78
2016-12-27T05:03:13.084Z,1031.8
2016-12-27T05:03:53.629Z,1031.78
2016-12-27T05:04:34.159Z,1031.73
2016-12-27T05:05:14.697Z,1031.76
2016-12-27T05:05:55.244Z,1031.8
2016-12-27T05:06:35.775Z,1031.83
2016-12-27T05:07:16.316Z,1031.82
2016-12-27T05:07:56.831Z,1031.82
2016-12-27T05:08:37.372Z,1031.85
2016-12-27T05:09:17.902Z,1031.79
2016-12-27T05:09:58.431Z,1031.78
2016-12-27T05:10:38.956Z,1031.79
2016-12-27T05:11:19.486Z,1031.81
2016-12-27T05:12:00.024Z,1031.82
2016-12-27T05:12:40.554Z,1031.86
2016-12-27T05:13:21.083Z,1031.89
2016-12-27T05:14:01.598Z,1031.95
2016-12-27T05:14:42.137Z,1031.94
2016-12-27T05:15:22.668Z,1031.94
2016-12-27T05:16:03.206Z,1031.96
2016-12-27T05:16:43.749Z,1032.03
2016-12-27T05:17:24.311Z,1032
2016-12-27T05:18:04.849Z,1032
2016-12-27T05:18:45.426Z,1031.99
2016-12-27T05:19:25.967Z,1032.01
2016-12-27T05:20:06.490Z,1032
2016-12-27T05:20:47.012Z,1031.97
2016-12-27T05:21:27.551Z,1031.96
2016-12-27T05:22:08.093Z,1031.97
2016-12-27T05:22:48.629Z,1031.97
2016-12-27T05:23:29.171Z,1031.96
2016-12-27T05:24:09.710Z,1031.98
2016-12-27T05:24:50.251Z,1031.94
2016-12-27T05:25:30.775Z,1031.94
2016-12-27T05:26:11.306Z,1031.97
2016-12-27T05:26:51.843Z,1031.99
2016-12-27T05:27:32.380Z,1032.06
2016-12-27T05:28:12.924Z,1032.04
2016-12-27T05:28:53.478Z,1032.04
2016-12-27T05:29:34.011Z,1032.09
2016-12-27T05:30:14.540Z,1032.1
2016-12-27T05:30:55.099Z,1032.1
2016-12-27T05:31:35.619Z,1032.08
2016-12-27T05:32:16.226Z,1032.08
2016-12-27T05:32:56.752Z,1032.13
2016-12-27T05:33:37.274Z,1032.09
2016-12-27T05:34:17.820Z,1032.08
2016-12-27T05:34:58.350Z,1032.08
2016-12-27T05:35:38.887Z,1032.02
2016-12-27T05:36:19.432Z,1032.07
2016-12-27T05:36:59.966Z,1032.06
2016-12-27T05:37:40.497Z,1031.99
2016-12-27T05:38:21.027Z,1031.99
2016-12-27T05:39:01.559Z,1031.98
2016-12-27T05:39:42.084Z,1031.98
2016-12-27T05:40:22.601Z,1031.92
2016-12-27T05:41:03.119Z,1031.95
2016-12-27T05:41:43.667Z,1031.94
2016-12-27T05:42:24.204Z,1031.93
2016-12-27T05:43:04.745Z,1031.91
2016-12-27T05:43:45.276Z,1031.91
2016-12-27T05:44:25.811Z,1031.94
2016-12-27T05:45:06.344Z,1031.9
2016-12-27T05:45:46.878Z,1031.89
2016-12-27T05:46:27.406Z,1031.88
2016-12-27T05:47:07.935Z,1031.87
2016-12-27T05:47:48.477Z,1031.87
2016-12-27T05:48:29.008Z,1031.91
2016-12-27T05:49:09.532Z,1031.92
2016-12-27T05:49:50.066Z,1031.93
2016-12-27T05:50:30.599Z,1031.95
2016-12-27T05:51:11.131Z,1031.97
2016-12-27T05:51:51.655Z,1031.98
2016-12-27T05:52:32.186Z,1032.03
2016-12-27T05:53:12.724Z,1032.01
2016-12-27T05:53:53.260Z,1031.98
2016-12-27T05:54:33.796Z,1031.98
2016-12-27T05:55:14.332Z,1031.99
2016-12-27T05:55:54.859Z,1032.02
2016-12-27T05:56:35.391Z,1032
2016-12-27T05:57:15.928Z,1032.07
2016-12-27T05:57:56.465Z,1032.01
2016-12-27T05:58:36.999Z,1031.96
2016-12-27T05:59:17.536Z,1031.99
2016-12-27T05:59:58.064Z,1032.04
2016-12-27T06:00:38.603Z,1032.02
2016-12-27T06:01:19.132Z,1032.01
2016-12-27T06:01:59.669Z,1032
2016-12-27T06:02:40.197Z,1031.97
2016-12-27T06:03:20.739Z,1031.95
2016-12-27T06:04:01.266Z,1031.99
2016-12-27T06:04:41.803Z,1031.95
2016-12-27T06:05:22.336Z,1032
2016-12-27T06:06:02.871Z,1031.99
2016-12-27T06:06:43.409Z,1031.99
2016-12-27T06:07:23.943Z,1032.04
2016-12-27T06:08:04.473Z,1032.03
2016-12-27T06:08:45.005Z,1032.05
2016-12-27T06:09:25.537Z,1032.1
2016-12-27T06:10:06.059Z,1032.12
2016-12-27T06:10:46.594Z,1032.05
2016-12-27T06:11:27.123Z,1032.04
2016-12-27T06:12:07.661Z,1032.07
2016-12-27T06:12:48.191Z,1032.08
2016-12-27T06:13:28.725Z,1032.03
2016-12-27T06:14:09.286Z,1032.08
2016-12-27T06:14:49.820Z,1032.07
2016-12-27T06:15:30.357Z,1032.13
2016-12-27T06:16:10.895Z,1032.15
2016-12-27T06:16:51.423Z,1032.13
2016-12-27T06:17:31.954Z,1032.16
2016-12-27T06:18:12.491Z,1032.16
2016-12-27T06:18:53.013Z,1032.19
2016-12-27T06:19:33.546Z,1032.27
2016-12-27T06:20:14.077Z,1032.25
2016-12-27T06:20:54.606Z,1032.31
2016-12-27T06:21:35.144Z,1032.34
2016-12-27T06:22:15.673Z,1032.35
2016-12-27T06:22:56.212Z,1032.38
2016-12-27T06:23:36.762Z,1032.35
2016-12-27T06:24:17.300Z,1032.46
2016-12-27T06:24:57.820Z,1032.45
2016-12-27T06:25:38.362Z,1032.5
2016-12-27T06:26:18.890Z,1032.52
2016-12-27T06:26:59.429Z,1032.54
2016-12-27T06:27:39.963Z,1032.56
2016-12-27T06:28:20.488Z,1032.6
2016-12-27T06:29:01.012Z,1032.64
2016-12-27T06:29:41.543Z,1032.61
2016-12-27T06:30:22.080Z,1032.58
2016-12-27T06:31:02.606Z,1032.63
2016-12-27T06:31:43.136Z,1032.59
2016-12-27T06:32:23.667Z,1032.61
2016-12-27T06:33:04.204Z,1032.6
2016-12-27T06:33:44.743Z,1032.65
2016-12-27T06:34:25.285Z,1032.73
2016-12-27T06:35:05.817Z,1032.73
2016-12-27T06:35:46.343Z,1032.75
2016-12-27T06:36:26.867Z,1032.72
2016-12-27T06:37:07.406Z,1032.76
2016-12-27T06:37:47.937Z,1032.73
2016-12-27T06:38:28.502Z,1032.76
2016-12-27T06:39:08.994Z,1032.69
2016-12-27T06:39:49.540Z,1032.67
2016-12-27T06:40:30.070Z,1032.65
2016-12-27T06:41:10.612Z,1032.66
2016-12-27T06:41:51.151Z,1032.65
2016-12-27T06:42:31.700Z,1032.7
2016-12-27T06:43:12.237Z,1032.67
2016-12-27T06:43:52.772Z,1032.72
2016-12-27T06:44:33.305Z,1032.76
2016-12-27T06:45:13.840Z,1032.75
2016-12-27T06:45:54.376Z,1032.78
2016-12-27T06:46:34.928Z,1032.77
2016-12-27T06:47:15.444Z,1032.76
2016-12-27T06:47:55.978Z,1032.81
2016-12-27T06:48:36.503Z,1032.79
2016-12-27T06:49:17.036Z,1032.79
2016-12-27T06:49:57.571Z,1032.8
2016-12-27T06:50:38.109Z,1032.81
2016-12-27T06:51:18.643Z,1032.79
2016-12-27T06:51:59.175Z,1032.84
2016-12-27T06:52:39.712Z,1032.85
2016-12-27T06:53:20.242Z,1032.87
2016-12-27T06:54:00.781Z,1032.87
2016-12-27T06:54:41.319Z,1032.9
2016-12-27T06:55:21.864Z,1032.91
2016-12-27T06:56:02.401Z,1032.94
2016-12-27T06:56:42.938Z,1032.88
2016-12-27T06:57:23.478Z,1032.93
2016-12-27T06:58:04.010Z,1033
2016-12-27T06:58:44.543Z,1032.97
2016-12-27T06:59:25.078Z,1032.97
2016-12-27T07:00:05.645Z,1033
2016-12-27T07:00:46.179Z,1032.98
2016-12-27T07:01:26.715Z,1033.01
2016-12-27T07:02:07.241Z,1033.05
2016-12-27T07:02:47.781Z,1033.02
2016-12-27T07:03:28.311Z,1033.05
2016-12-27T07:04:08.851Z,1033.05
2016-12-27T07:04:49.387Z,1033.05
2016-12-27T07:05:29.919Z,1033.04
2016-12-27T07:06:10.457Z,1033.05
2016-12-27T07:06:50.988Z,1033.06
2016-12-27T07:07:31.560Z,1033.11
2016-12-27T07:08:12.089Z,1033.08
2016-12-27T07:08:52.613Z,1033.11
2016-12-27T07:09:33.144Z,1033.1
2016-12-27T07:10:13.694Z,1033.13
2016-12-27T07:10:54.228Z,1033.11
2016-12-27T07:11:34.763Z,1033.11
2016-12-27T07:12:15.283Z,1033.05
2016-12-27T07:12:55.817Z,1033.03
2016-12-27T07:13:36.347Z,1033.04
2016-12-27T07:14:16.876Z,1033.06
2016-12-27T07:14:57.429Z,1033.06
2016-12-27T07:15:37.965Z,1033.09
2016-12-27T07:16:18.492Z,1033.07
2016-12-27T07:16:59.021Z,1033.07
2016-12-27T07:17:39.557Z,1033.04
2016-12-27T07:18:20.093Z,1033.02
2016-12-27T07:19:00.628Z,1033.05
2016-12-27T07:19:41.167Z,1033.06
2016-12-27T07:20:21.710Z,1033.04
2016-12-27T07:21:02.248Z,1033.11
2016-12-27T07:21:42.779Z,1033.04
2016-12-27T07:22:23.311Z,1033.04
2016-12-27T07:23:03.850Z,1033.06
2016-12-27T07:23:44.379Z,1033.04
2016-12-27T07:24:24.932Z,1033.03
2016-12-27T07:25:05.429Z,1033.02
2016-12-27T07:25:45.957Z,1032.99
2016-12-27T07:26:26.492Z,1032.96
2016-12-27T07:27:07.027Z,1032.98
2016-12-27T07:27:47.565Z,1033.02
2016-12-27T07:28:28.106Z,1033.02
2016-12-27T07:29:08.629Z,1033.06
2016-12-27T07:29:49.174Z,1033.05
2016-12-27T07:30:29.743Z,1033.05
2016-12-27T07:31:10.273Z,1033.05
2016-12-27T07:31:50.809Z,1033.07
2016-12-27T07:32:31.344Z,1033.07
2016-12-27T07:33:11.878Z,1033.1
2016-12-27T07:33:52.412Z,1033.06
2016-12-27T07:34:32.925Z,1033.06
2016-12-27T07:35:13.464Z,1033.11
2016-12-27T07:35:53.992Z,1033.08
2016-12-27T07:36:34.531Z,1033.09
2016-12-27T07:37:15.071Z,1033.07
2016-12-27T07:37:55.596Z,1033.08
2016-12-27T07:38:36.134Z,1033.08
2016-12-27T07:39:16.677Z,1033.09
2016-12-27T07:39:57.194Z,1033.14
2016-12-27T07:40:37.729Z,1033.17
2016-12-27T07:41:18.272Z,1033.18
2016-12-27T07:41:58.811Z,1033.23
2016-12-27T07:42:39.339Z,1033.25
2016-12-27T07:43:19.871Z,1033.2
2016-12-27T07:44:00.408Z,1033.24
2016-12-27T07:44:40.948Z,1033.25
2016-12-27T07:45:21.482Z,1033.23
2016-12-27T07:46:02.017Z,1033.24
2016-12-27T07:46:42.549Z,1033.28
2016-12-27T07:47:23.083Z,1033.29
2016-12-27T07:48:03.644Z,1033.29
2016-12-27T07:48:44.182Z,1033.34
2016-12-27T07:49:24.714Z,1033.32
2016-12-27T07:50:05.250Z,1033.37
2016-12-27T07:50:45.788Z,1033.41
2016-12-27T07:51:26.305Z,1033.44
2016-12-27T07:52:06.836Z,1033.43
2016-12-27T07:52:47.374Z,1033.47
2016-12-27T07:53:27.907Z,1033.47
2016-12-27T07:54:08.443Z,1033.48
2016-12-27T07:54:48.994Z,1033.5
2016-12-27T07:55:29.537Z,1033.51
2016-12-27T07:56:10.060Z,1033.5
2016-12-27T07:56:50.596Z,1033.54
2016-12-27T07:57:31.132Z,1033.52
2016-12-27T07:58:11.665Z,1033.53
2016-12-27T07:58:52.233Z,1033.55
2016-12-27T07:59:32.781Z,1033.53
2016-12-27T08:00:13.316Z,1033.52
2016-12-27T08:00:53.851Z,1033.48
2016-12-27T08:01:34.388Z,1033.45
2016-12-27T08:02:14.927Z,1033.51
2016-12-27T08:02:55.482Z,1033.52
2016-12-27T08:03:36.006Z,1033.5
2016-12-27T08:04:16.546Z,1033.53
2016-12-27T08:04:57.086Z,1033.55
2016-12-27T08:05:37.618Z,1033.49
2016-12-27T08:06:18.154Z,1033.52
2016-12-27T08:06:58.692Z,1033.5
2016-12-27T08:07:39.207Z,1033.45
2016-12-27T08:08:19.739Z,1033.44
2016-12-27T08:09:00.265Z,1033.45
2016-12-27T08:09:40.803Z,1033.48
2016-12-27T08:10:21.342Z,1033.44
2016-12-27T08:11:01.860Z,1033.45
2016-12-27T08:11:42.391Z,1033.46
2016-12-27T08:12:22.941Z,1033.51
2016-12-27T08:13:03.466Z,1033.55
2016-12-27T08:13:44.033Z,1033.54
2016-12-27T08:14:24.569Z,1033.5
2016-12-27T08:15:05.097Z,1033.53
2016-12-27T08:15:45.636Z,1033.52
2016-12-27T08:16:26.162Z,1033.55
2016-12-27T08:17:06.691Z,1033.57
2016-12-27T08:17:47.228Z,1033.53
2016-12-27T08:18:27.773Z,1033.54
2016-12-27T08:19:08.287Z,1033.57
2016-12-27T08:19:48.836Z,1033.61
2016-12-27T08:20:29.365Z,1033.6
2016-12-27T08:21:09.894Z,1033.64
2016-12-27T08:21:50.448Z,1033.65
2016-12-27T08:22:30.997Z,1033.66
2016-12-27T08:23:11.526Z,1033.64
2016-12-27T08:23:52.060Z,1033.72
2016-12-27T08:24:32.654Z,1033.74
2016-12-27T08:25:13.193Z,1033.77
2016-12-27T08:25:53.727Z,1033.72
2016-12-27T08:26:34.266Z,1033.78
2016-12-27T08:27:14.795Z,1033.78
2016-12-27T08:27:55.338Z,1033.79
2016-12-27T08:28:35.862Z,1033.81
2016-12-27T08:29:16.403Z,1033.85
2016-12-27T08:29:56.931Z,1033.85
2016-12-27T08:30:37.470Z,1033.83
2016-12-27T08:31:18.005Z,1033.84
2016-12-27T08:31:58.542Z,1033.82
2016-12-27T08:32:39.074Z,1033.88
2016-12-27T08:33:19.605Z,1033.86
2016-12-27T08:34:00.144Z,1033.81
2016-12-27T08:34:40.687Z,1033.84
2016-12-27T08:35:21.220Z,1033.81
2016-12-27T08:36:01.758Z,1033.83
2016-12-27T08:36:42.293Z,1033.87
2016-12-27T08:37:22.824Z,1033.91
2016-12-27T08:38:03.358Z,1033.89
2016-12-27T08:38:43.892Z,1033.92
2016-12-27T08:39:24.425Z,1033.96
2016-12-27T08:40:04.959Z,1033.92
2016-12-27T08:40:45.486Z,1033.9
2016-12-27T08:41:26.027Z,1033.93
2016-12-27T08:42:06.564Z,1033.91
2016-12-27T08:42:47.099Z,1033.96
2016-12-27T08:43:27.647Z,1033.91
2016-12-27T08:44:08.184Z,1033.92
2016-12-27T08:44:48.723Z,1033.93
2016-12-27T08:45:29.242Z,1033.94
2016-12-27T08:46:09.786Z,1033.94
2016-12-27T08:46:50.316Z,1033.96
2016-12-27T08:47:30.876Z,1033.98
2016-12-27T08:48:11.402Z,1033.98
2016-12-27T08:48:51.938Z,1033.97
2016-12-27T08:49:32.477Z,1033.95
2016-12-27T08:50:13.016Z,1033.98
2016-12-27T08:50:53.555Z,1034.02
2016-12-27T08:51:34.084Z,1034.04